Hauptseite
METAR-TAF:

METAR-TAF

Flughäfen :

Kiel, Deutschland

Flughafen Kiel

Breite: 54-23N, Länge: 010-10E, Höhe: 31 m

Beobachtung

Neuester Wetterbericht von vor 40 Minuten, um 16:50 UTC
Wind 6 kt aus Nordost
Temperatur 7°C
Luftfeuchtigkeit 76%
Luftdruck 1018 hPa
Sichtweite 10 km oder mehr
Leicht bewölkt in der Höhe von 2000 ft

METAR: EDHK 291650Z 04006KT 9999 FEW020 07/03 Q1018

Zeit: 19:30 (17:30 UTC)

Prognose

Neuester Wetterbericht von vor 3 Stunden und 30 Minuten, um 14:00 UTC
Gültige Prognose vom 29 um 15 UTC bis 29 um 18 UTC
Wind 7 kt aus Nordost
Sichtweite 10 km oder mehr
Aufgelockert bewölkt in der Höhe von 2000 ft

TAF: EDHK 291400Z 2915/2918 04007KT 9999 SCT020

Wetterbeobachtungen und Prognosen von mehr als 4000 Flughäfen (METAR und TAF Bericht).

Die verfügbaren Stationen werden durch gelbe und rote Markierungen auf der Karte dargestellt.

Führen Sie die Maus auf sie, um den Namen der Station zu sehen.

Darauf klicken, um die Beobachtung von Wetterbeobachtungen und Prognosen zu sehen.

Um die Karte zu ändern : klicken Sie auf den grünen Tasten mit einem schwarzen Kreuz Zum Vergrößern, auf den grünen Button mit einem Gedankenstrich zu verkleinern, oder auf die grünen Pfeile für benachbarte Karten.


METAR-TAF: